Zenith Leader — 2ACU6 — position and weather

sailwx.info

Track history (hours):
 
Tides and Currents Weather Stations Pressure Air Temp Water Temp Dewpoint Dewpoint Depression Visibility Wind Speed Wind Dir Waves Ship Positions

Zenith Leader

Last reported at 2014-Jul-08 10:33 UTC. Time now 2014-Jul-25 23:04 UTC.
Position N 22°14' E 119°33'.
Warning: this ship's position is 17 days out of date.

Length 199 m; draft 9 m.

Type: Cargo ship. MMSI: 235058697.

Date/timePositionNaut miles runAvg speedWind from/ knotsBaromVisibWave heightAir tempDewpointWater temp
2014-Jul-08 10:33N 22°14' E 119°33'1915.9
2014-Jul-08 09:22N 22°31' E 119°43'1315.8
2014-Jul-08 08:32N 22°42' E 119°50'  
2014-Jul-02 11:25N 34°27' E 138°30'5614.5
2014-Jul-02 07:33N 34°45' E 139°35'1615.9
2014-Jul-02 06:33N 34°60' E 139°41'1413.9
2014-Jul-02 05:33N 35°13' E 139°46'1211.7
2014-Jul-02 04:33N 35°24' E 139°42'4 4.1
2014-Jul-02 03:32N 35°28' E 139°41'0 0.0
2014-Jul-02 02:32N 35°28' E 139°41'0 0.0
2014-Jul-02 01:32N 35°28' E 139°41'0 0.0
2014-Jul-02 00:32N 35°28' E 139°41'0 0.0
2014-Jul-01 23:32N 35°28' E 139°41'0 0.0
2014-Jul-01 22:32N 35°28' E 139°41'3 3.1
2014-Jul-01 21:33N 35°27' E 139°44'9 8.6
2014-Jul-01 20:33N 35°18' E 139°45'10 9.9
2014-Jul-01 19:33N 35°08' E 139°46'10 9.9
2014-Jul-01 18:33N 34°59' E 139°42'1110.9
2014-Jul-01 17:33N 34°48' E 139°40'1312.5
2014-Jul-01 16:31N 34°35' E 139°42'5 2.4
2014-Jul-01 14:32N 34°31' E 139°44'1 0.5
2014-Jul-01 13:14N 34°30' E 139°43'1 0.9
2014-Jul-01 12:26N 34°29' E 139°43'3 3.2
2014-Jul-01 11:33N 34°30' E 139°40'6415.4
2014-Jul-01 07:23N 34°37' E 138°22'2 0.1
2014-Jun-30 14:20N 34°37' E 138°20'171 3.9
2014-Jun-28 18:33N 33°54' E 134°59'1616.0
2014-Jun-28 17:33N 34°10' E 134°57'1413.6
2014-Jun-28 16:33N 34°24' E 135°01'1211.7
2014-Jun-28 15:33N 34°35' E 135°05'1414.1
2014-Jun-28 14:33N 34°33' E 134°48'  
Track history (hours):
 
Tides and Currents Weather Stations Pressure Air Temp Water Temp Dewpoint Dewpoint Depression Visibility Wind Speed Wind Dir Waves Ship Positions

Zenith Leader

Last reported at 2014-Jul-08 10:33 UTC. Time now 2014-Jul-25 23:04 UTC.
Position N 22°14' E 119°33'.
Warning: this ship's position is 17 days out of date.

Length 199 m; draft 9 m.

Type: Cargo ship. MMSI: 235058697.

Date/timePositionNaut miles runAvg speedWind from/ knotsBaromVisibWave heightAir tempDewpointWater temp
2014-Jul-08 10:33N 22°14' E 119°33'1915.9
2014-Jul-08 09:22N 22°31' E 119°43'1315.8
2014-Jul-08 08:32N 22°42' E 119°50'  
2014-Jul-02 11:25N 34°27' E 138°30'5614.5
2014-Jul-02 07:33N 34°45' E 139°35'1615.9
2014-Jul-02 06:33N 34°60' E 139°41'1413.9
2014-Jul-02 05:33N 35°13' E 139°46'1211.7
2014-Jul-02 04:33N 35°24' E 139°42'4 4.1
2014-Jul-02 03:32N 35°28' E 139°41'0 0.0
2014-Jul-02 02:32N 35°28' E 139°41'0 0.0
2014-Jul-02 01:32N 35°28' E 139°41'0 0.0
2014-Jul-02 00:32N 35°28' E 139°41'0 0.0
2014-Jul-01 23:32N 35°28' E 139°41'0 0.0
2014-Jul-01 22:32N 35°28' E 139°41'3 3.1
2014-Jul-01 21:33N 35°27' E 139°44'9 8.6
2014-Jul-01 20:33N 35°18' E 139°45'10 9.9
2014-Jul-01 19:33N 35°08' E 139°46'10 9.9
2014-Jul-01 18:33N 34°59' E 139°42'1110.9
2014-Jul-01 17:33N 34°48' E 139°40'1312.5
2014-Jul-01 16:31N 34°35' E 139°42'5 2.4
2014-Jul-01 14:32N 34°31' E 139°44'1 0.5
2014-Jul-01 13:14N 34°30' E 139°43'1 0.9
2014-Jul-01 12:26N 34°29' E 139°43'3 3.2
2014-Jul-01 11:33N 34°30' E 139°40'6415.4
2014-Jul-01 07:23N 34°37' E 138°22'2 0.1
2014-Jun-30 14:20N 34°37' E 138°20'171 3.9
2014-Jun-28 18:33N 33°54' E 134°59'1616.0
2014-Jun-28 17:33N 34°10' E 134°57'1413.6
2014-Jun-28 16:33N 34°24' E 135°01'1211.7
2014-Jun-28 15:33N 34°35' E 135°05'1414.1
2014-Jun-28 14:33N 34°33' E 134°48'  

Dump ship's entire track history